sensor_id;sensor_type;location;lat;lon;timestamp;temperature;humidity
27759;DHT22;15148;48.972;12.794;2023-07-20T00:04:13;18.40;99.90
27759;DHT22;15148;48.972;12.794;2023-07-20T00:09:16;18.40;99.90
27759;DHT22;15148;48.972;12.794;2023-07-20T00:14:18;18.40;99.90
27759;DHT22;15148;48.972;12.794;2023-07-20T00:19:20;18.40;99.90
27759;DHT22;15148;48.972;12.794;2023-07-20T00:24:24;18.30;99.90
27759;DHT22;15148;48.972;12.794;2023-07-20T00:29:26;18.40;99.90
27759;DHT22;15148;48.972;12.794;2023-07-20T00:34:28;18.40;99.90
27759;DHT22;15148;48.972;12.794;2023-07-20T00:39:30;18.30;99.90
27759;DHT22;15148;48.972;12.794;2023-07-20T00:44:33;18.20;99.90
27759;DHT22;15148;48.972;12.794;2023-07-20T00:49:35;18.20;99.90
27759;DHT22;15148;48.972;12.794;2023-07-20T00:54:38;18.10;99.90
27759;DHT22;15148;48.972;12.794;2023-07-20T00:59:40;18.00;99.90
27759;DHT22;15148;48.972;12.794;2023-07-20T01:04:42;17.80;99.90
27759;DHT22;15148;48.972;12.794;2023-07-20T01:14:58;17.70;99.90
27759;DHT22;15148;48.972;12.794;2023-07-20T01:20:01;17.50;99.90
27759;DHT22;15148;48.972;12.794;2023-07-20T01:31:12;17.20;99.90
27759;DHT22;15148;48.972;12.794;2023-07-20T01:36:16;17.20;99.90
27759;DHT22;15148;48.972;12.794;2023-07-20T01:41:20;17.20;99.90
27759;DHT22;15148;48.972;12.794;2023-07-20T01:46:22;17.10;99.90
27759;DHT22;15148;48.972;12.794;2023-07-20T01:51:24;17.00;99.90
27759;DHT22;15148;48.972;12.794;2023-07-20T01:56:26;16.90;99.90
27759;DHT22;15148;48.972;12.794;2023-07-20T02:01:29;16.80;99.90
27759;DHT22;15148;48.972;12.794;2023-07-20T02:06:31;16.80;99.90
27759;DHT22;15148;48.972;12.794;2023-07-20T02:11:33;16.70;99.90
27759;DHT22;15148;48.972;12.794;2023-07-20T02:16:35;16.60;99.90
27759;DHT22;15148;48.972;12.794;2023-07-20T02:21:37;16.60;99.90
27759;DHT22;15148;48.972;12.794;2023-07-20T02:26:40;16.50;99.90
27759;DHT22;15148;48.972;12.794;2023-07-20T02:31:42;16.50;99.90
27759;DHT22;15148;48.972;12.794;2023-07-20T02:36:45;16.50;99.90
27759;DHT22;15148;48.972;12.794;2023-07-20T02:41:49;16.50;99.90
27759;DHT22;15148;48.972;12.794;2023-07-20T02:46:51;16.50;99.90
27759;DHT22;15148;48.972;12.794;2023-07-20T02:51:52;16.40;99.90
27759;DHT22;15148;48.972;12.794;2023-07-20T02:56:54;16.40;99.90
27759;DHT22;15148;48.972;12.794;2023-07-20T03:01:56;16.40;99.90
27759;DHT22;15148;48.972;12.794;2023-07-20T03:06:59;16.30;99.90
27759;DHT22;15148;48.972;12.794;2023-07-20T03:12:02;16.30;99.90
27759;DHT22;15148;48.972;12.794;2023-07-20T03:17:06;16.30;99.90
27759;DHT22;15148;48.972;12.794;2023-07-20T03:22:10;16.20;99.90
27759;DHT22;15148;48.972;12.794;2023-07-20T03:27:12;16.20;99.90
27759;DHT22;15148;48.972;12.794;2023-07-20T03:32:14;16.20;99.90
27759;DHT22;15148;48.972;12.794;2023-07-20T03:37:16;16.20;99.90
27759;DHT22;15148;48.972;12.794;2023-07-20T03:42:18;16.20;99.90
27759;DHT22;15148;48.972;12.794;2023-07-20T03:47:20;16.40;99.90
27759;DHT22;15148;48.972;12.794;2023-07-20T03:52:22;16.30;99.90
27759;DHT22;15148;48.972;12.794;2023-07-20T03:57:24;16.30;99.90
27759;DHT22;15148;48.972;12.794;2023-07-20T04:02:26;16.40;99.90
27759;DHT22;15148;48.972;12.794;2023-07-20T04:07:28;16.40;99.90
27759;DHT22;15148;48.972;12.794;2023-07-20T04:12:30;16.50;99.90
27759;DHT22;15148;48.972;12.794;2023-07-20T04:17:32;16.60;99.90
27759;DHT22;15148;48.972;12.794;2023-07-20T04:22:35;16.60;99.90
27759;DHT22;15148;48.972;12.794;2023-07-20T04:27:38;16.70;99.90
27759;DHT22;15148;48.972;12.794;2023-07-20T04:32:40;16.70;99.90
27759;DHT22;15148;48.972;12.794;2023-07-20T04:37:49;16.80;99.90
27759;DHT22;15148;48.972;12.794;2023-07-20T04:42:53;16.90;99.90
27759;DHT22;15148;48.972;12.794;2023-07-20T04:47:55;17.00;99.90
27759;DHT22;15148;48.972;12.794;2023-07-20T04:52:58;16.90;99.90
27759;DHT22;15148;48.972;12.794;2023-07-20T04:58:01;17.10;99.90
27759;DHT22;15148;48.972;12.794;2023-07-20T05:03:03;17.20;99.90
27759;DHT22;15148;48.972;12.794;2023-07-20T05:08:09;17.30;99.90
27759;DHT22;15148;48.972;12.794;2023-07-20T05:13:11;17.40;99.90
27759;DHT22;15148;48.972;12.794;2023-07-20T05:18:13;17.60;99.90
27759;DHT22;15148;48.972;12.794;2023-07-20T05:23:22;17.70;99.90
27759;DHT22;15148;48.972;12.794;2023-07-20T05:28:27;17.90;99.90
27759;DHT22;15148;48.972;12.794;2023-07-20T05:33:29;17.90;99.90
27759;DHT22;15148;48.972;12.794;2023-07-20T05:38:31;18.10;99.90
27759;DHT22;15148;48.972;12.794;2023-07-20T05:43:33;18.20;99.90
27759;DHT22;15148;48.972;12.794;2023-07-20T05:48:35;18.40;99.90
27759;DHT22;15148;48.972;12.794;2023-07-20T05:53:37;18.60;99.90
27759;DHT22;15148;48.972;12.794;2023-07-20T05:58:40;18.70;99.90
27759;DHT22;15148;48.972;12.794;2023-07-20T06:03:41;18.90;99.90
27759;DHT22;15148;48.972;12.794;2023-07-20T06:08:43;18.90;99.90
27759;DHT22;15148;48.972;12.794;2023-07-20T06:13:45;19.00;99.90
27759;DHT22;15148;48.972;12.794;2023-07-20T06:18:47;19.00;99.90
27759;DHT22;15148;48.972;12.794;2023-07-20T06:23:49;19.20;99.90
27759;DHT22;15148;48.972;12.794;2023-07-20T06:28:51;19.10;99.90
27759;DHT22;15148;48.972;12.794;2023-07-20T06:33:53;19.30;99.90
27759;DHT22;15148;48.972;12.794;2023-07-20T06:38:55;19.40;99.90
27759;DHT22;15148;48.972;12.794;2023-07-20T06:44:00;19.50;99.90
27759;DHT22;15148;48.972;12.794;2023-07-20T06:49:02;19.40;99.90
27759;DHT22;15148;48.972;12.794;2023-07-20T06:54:07;19.40;99.90
27759;DHT22;15148;48.972;12.794;2023-07-20T06:59:09;19.50;99.90
27759;DHT22;15148;48.972;12.794;2023-07-20T07:04:11;19.50;99.90
27759;DHT22;15148;48.972;12.794;2023-07-20T07:09:13;19.80;99.90
27759;DHT22;15148;48.972;12.794;2023-07-20T07:14:15;20.10;99.90
27759;DHT22;15148;48.972;12.794;2023-07-20T07:19:17;20.40;99.90
27759;DHT22;15148;48.972;12.794;2023-07-20T07:24:19;20.40;99.90
27759;DHT22;15148;48.972;12.794;2023-07-20T07:29:21;20.40;99.90
27759;DHT22;15148;48.972;12.794;2023-07-20T07:34:22;20.20;99.90
27759;DHT22;15148;48.972;12.794;2023-07-20T07:39:24;20.20;99.90
27759;DHT22;15148;48.972;12.794;2023-07-20T07:44:36;20.30;99.90
27759;DHT22;15148;48.972;12.794;2023-07-20T07:49:38;20.60;99.90
27759;DHT22;15148;48.972;12.794;2023-07-20T07:54:40;20.90;99.90
27759;DHT22;15148;48.972;12.794;2023-07-20T07:59:42;21.00;99.90
27759;DHT22;15148;48.972;12.794;2023-07-20T08:04:43;21.10;99.90
27759;DHT22;15148;48.972;12.794;2023-07-20T08:09:45;21.60;99.90
27759;DHT22;15148;48.972;12.794;2023-07-20T08:14:47;22.00;99.90
27759;DHT22;15148;48.972;12.794;2023-07-20T08:19:50;22.20;99.90
27759;DHT22;15148;48.972;12.794;2023-07-20T08:24:52;21.90;99.90
27759;DHT22;15148;48.972;12.794;2023-07-20T08:29:54;21.70;99.90
27759;DHT22;15148;48.972;12.794;2023-07-20T08:34:56;21.70;99.90
27759;DHT22;15148;48.972;12.794;2023-07-20T08:39:58;21.90;99.90
27759;DHT22;15148;48.972;12.794;2023-07-20T08:45:00;22.20;99.90
27759;DHT22;15148;48.972;12.794;2023-07-20T08:50:05;22.40;99.90
27759;DHT22;15148;48.972;12.794;2023-07-20T08:55:09;22.30;99.90
27759;DHT22;15148;48.972;12.794;2023-07-20T09:00:12;22.10;99.90
27759;DHT22;15148;48.972;12.794;2023-07-20T09:05:15;22.30;99.90
27759;DHT22;15148;48.972;12.794;2023-07-20T09:10:17;22.10;99.90
27759;DHT22;15148;48.972;12.794;2023-07-20T09:15:20;21.90;99.90
27759;DHT22;15148;48.972;12.794;2023-07-20T09:20:22;22.00;99.90
27759;DHT22;15148;48.972;12.794;2023-07-20T09:25:24;22.50;99.90
27759;DHT22;15148;48.972;12.794;2023-07-20T09:30:32;22.90;99.90
27759;DHT22;15148;48.972;12.794;2023-07-20T09:35:35;23.30;99.90
27759;DHT22;15148;48.972;12.794;2023-07-20T09:40:43;23.80;99.90
27759;DHT22;15148;48.972;12.794;2023-07-20T09:45:48;24.30;99.90
27759;DHT22;15148;48.972;12.794;2023-07-20T09:50:55;24.80;99.90
27759;DHT22;15148;48.972;12.794;2023-07-20T09:55:59;25.10;99.90
27759;DHT22;15148;48.972;12.794;2023-07-20T10:01:06;25.30;99.90
27759;DHT22;15148;48.972;12.794;2023-07-20T10:06:10;25.40;99.90
27759;DHT22;15148;48.972;12.794;2023-07-20T10:11:16;25.10;99.90
27759;DHT22;15148;48.972;12.794;2023-07-20T10:16:50;24.70;99.90
27759;DHT22;15148;48.972;12.794;2023-07-20T10:22:00;24.30;99.90
27759;DHT22;15148;48.972;12.794;2023-07-20T10:27:05;24.00;99.90
27759;DHT22;15148;48.972;12.794;2023-07-20T10:32:09;23.80;99.90
27759;DHT22;15148;48.972;12.794;2023-07-20T10:42:58;24.20;99.90
27759;DHT22;15148;48.972;12.794;2023-07-20T10:48:04;24.30;99.90
27759;DHT22;15148;48.972;12.794;2023-07-20T10:53:16;24.60;99.90
27759;DHT22;15148;48.972;12.794;2023-07-20T10:58:18;25.00;99.90
27759;DHT22;15148;48.972;12.794;2023-07-20T11:03:29;25.50;99.50
27759;DHT22;15148;48.972;12.794;2023-07-20T11:08:40;25.80;98.60
27759;DHT22;15148;48.972;12.794;2023-07-20T11:14:02;26.10;98.10
27759;DHT22;15148;48.972;12.794;2023-07-20T11:19:05;26.00;94.90
27759;DHT22;15148;48.972;12.794;2023-07-20T11:24:07;26.10;94.00
27759;DHT22;15148;48.972;12.794;2023-07-20T11:29:12;25.70;95.10
27759;DHT22;15148;48.972;12.794;2023-07-20T11:34:32;25.30;93.50
27759;DHT22;15148;48.972;12.794;2023-07-20T11:39:34;24.80;93.50
27759;DHT22;15148;48.972;12.794;2023-07-20T11:44:38;24.40;94.50
27759;DHT22;15148;48.972;12.794;2023-07-20T11:49:41;24.10;94.40
27759;DHT22;15148;48.972;12.794;2023-07-20T11:54:44;23.90;95.20
27759;DHT22;15148;48.972;12.794;2023-07-20T12:04:59;24.10;94.50
27759;DHT22;15148;48.972;12.794;2023-07-20T12:10:10;24.60;95.50
27759;DHT22;15148;48.972;12.794;2023-07-20T12:15:17;24.80;93.40
27759;DHT22;15148;48.972;12.794;2023-07-20T12:20:31;24.60;94.60
27759;DHT22;15148;48.972;12.794;2023-07-20T12:25:37;24.20;92.30
27759;DHT22;15148;48.972;12.794;2023-07-20T12:30:41;24.30;93.60
27759;DHT22;15148;48.972;12.794;2023-07-20T12:35:44;24.40;93.30
27759;DHT22;15148;48.972;12.794;2023-07-20T12:40:46;24.60;93.50
27759;DHT22;15148;48.972;12.794;2023-07-20T12:45:48;25.10;91.90
27759;DHT22;15148;48.972;12.794;2023-07-20T12:50:50;25.10;92.10
27759;DHT22;15148;48.972;12.794;2023-07-20T12:55:51;25.30;92.20
27759;DHT22;15148;48.972;12.794;2023-07-20T13:00:54;25.50;88.40
27759;DHT22;15148;48.972;12.794;2023-07-20T13:05:56;25.60;90.10
27759;DHT22;15148;48.972;12.794;2023-07-20T13:11:00;25.80;89.50
27759;DHT22;15148;48.972;12.794;2023-07-20T13:16:02;26.00;90.20
27759;DHT22;15148;48.972;12.794;2023-07-20T13:21:04;26.30;88.90
27759;DHT22;15148;48.972;12.794;2023-07-20T13:26:14;26.60;89.00
27759;DHT22;15148;48.972;12.794;2023-07-20T13:31:16;26.60;84.80
27759;DHT22;15148;48.972;12.794;2023-07-20T13:36:19;26.20;88.10
27759;DHT22;15148;48.972;12.794;2023-07-20T13:41:26;25.80;87.40
27759;DHT22;15148;48.972;12.794;2023-07-20T13:46:31;25.50;87.90
27759;DHT22;15148;48.972;12.794;2023-07-20T13:51:35;25.30;85.70
27759;DHT22;15148;48.972;12.794;2023-07-20T13:56:38;25.40;86.80
27759;DHT22;15148;48.972;12.794;2023-07-20T14:01:40;25.20;86.70
27759;DHT22;15148;48.972;12.794;2023-07-20T14:06:42;25.10;91.20
27759;DHT22;15148;48.972;12.794;2023-07-20T14:11:45;24.90;87.60
27759;DHT22;15148;48.972;12.794;2023-07-20T14:16:50;25.00;89.90
27759;DHT22;15148;48.972;12.794;2023-07-20T14:21:51;24.80;84.80
27759;DHT22;15148;48.972;12.794;2023-07-20T14:26:53;24.60;87.30
27759;DHT22;15148;48.972;12.794;2023-07-20T14:31:56;24.80;88.50
27759;DHT22;15148;48.972;12.794;2023-07-20T14:36:59;24.60;87.30
27759;DHT22;15148;48.972;12.794;2023-07-20T14:42:01;24.80;90.00
27759;DHT22;15148;48.972;12.794;2023-07-20T14:47:06;25.00;85.80
27759;DHT22;15148;48.972;12.794;2023-07-20T14:52:16;25.30;86.60
27759;DHT22;15148;48.972;12.794;2023-07-20T14:57:19;25.30;84.00
27759;DHT22;15148;48.972;12.794;2023-07-20T15:02:22;25.00;86.70
27759;DHT22;15148;48.972;12.794;2023-07-20T15:07:24;24.90;87.00
27759;DHT22;15148;48.972;12.794;2023-07-20T15:12:26;24.80;84.20
27759;DHT22;15148;48.972;12.794;2023-07-20T15:17:28;24.70;84.20
27759;DHT22;15148;48.972;12.794;2023-07-20T15:22:34;24.80;84.70
27759;DHT22;15148;48.972;12.794;2023-07-20T15:27:37;24.70;84.20
27759;DHT22;15148;48.972;12.794;2023-07-20T15:32:40;24.80;89.10
27759;DHT22;15148;48.972;12.794;2023-07-20T15:37:47;24.70;89.10
27759;DHT22;15148;48.972;12.794;2023-07-20T15:42:49;24.70;86.80
27759;DHT22;15148;48.972;12.794;2023-07-20T15:47:54;24.50;85.30
27759;DHT22;15148;48.972;12.794;2023-07-20T15:52:56;24.20;84.40
27759;DHT22;15148;48.972;12.794;2023-07-20T15:57:59;24.10;90.90
27759;DHT22;15148;48.972;12.794;2023-07-20T16:03:01;24.10;86.90
27759;DHT22;15148;48.972;12.794;2023-07-20T16:08:03;24.00;86.70
27759;DHT22;15148;48.972;12.794;2023-07-20T16:13:06;23.90;84.70
27759;DHT22;15148;48.972;12.794;2023-07-20T16:18:08;23.90;88.80
27759;DHT22;15148;48.972;12.794;2023-07-20T16:23:10;23.80;87.10
27759;DHT22;15148;48.972;12.794;2023-07-20T16:28:12;23.70;86.60
27759;DHT22;15148;48.972;12.794;2023-07-20T16:33:13;23.60;82.70
27759;DHT22;15148;48.972;12.794;2023-07-20T16:38:15;23.70;85.10
27759;DHT22;15148;48.972;12.794;2023-07-20T16:43:17;23.70;89.00
27759;DHT22;15148;48.972;12.794;2023-07-20T16:48:40;23.60;87.40
27759;DHT22;15148;48.972;12.794;2023-07-20T16:53:45;23.60;90.00
27759;DHT22;15148;48.972;12.794;2023-07-20T16:58:47;23.40;90.60
27759;DHT22;15148;48.972;12.794;2023-07-20T17:03:49;23.30;87.50
27759;DHT22;15148;48.972;12.794;2023-07-20T17:08:51;23.20;88.60
27759;DHT22;15148;48.972;12.794;2023-07-20T17:13:53;23.10;90.00
27759;DHT22;15148;48.972;12.794;2023-07-20T17:18:55;23.00;91.10
27759;DHT22;15148;48.972;12.794;2023-07-20T17:23:57;23.00;90.40
27759;DHT22;15148;48.972;12.794;2023-07-20T17:29:02;22.80;90.20
27759;DHT22;15148;48.972;12.794;2023-07-20T17:34:06;22.70;92.10
27759;DHT22;15148;48.972;12.794;2023-07-20T17:39:08;22.60;93.60
27759;DHT22;15148;48.972;12.794;2023-07-20T17:44:10;22.40;92.80
27759;DHT22;15148;48.972;12.794;2023-07-20T17:49:12;22.20;94.30
27759;DHT22;15148;48.972;12.794;2023-07-20T17:54:14;22.00;95.20
27759;DHT22;15148;48.972;12.794;2023-07-20T17:59:19;21.80;96.70
27759;DHT22;15148;48.972;12.794;2023-07-20T18:04:21;21.50;97.50
27759;DHT22;15148;48.972;12.794;2023-07-20T18:09:23;21.10;98.80
27759;DHT22;15148;48.972;12.794;2023-07-20T18:14:25;20.90;99.90
27759;DHT22;15148;48.972;12.794;2023-07-20T18:19:26;20.60;99.90
27759;DHT22;15148;48.972;12.794;2023-07-20T18:24:28;20.40;99.90
27759;DHT22;15148;48.972;12.794;2023-07-20T18:29:30;20.20;99.90
27759;DHT22;15148;48.972;12.794;2023-07-20T18:34:32;20.00;99.90
27759;DHT22;15148;48.972;12.794;2023-07-20T18:39:34;19.90;99.90
27759;DHT22;15148;48.972;12.794;2023-07-20T18:44:36;19.70;99.90
27759;DHT22;15148;48.972;12.794;2023-07-20T18:49:38;19.60;99.90
27759;DHT22;15148;48.972;12.794;2023-07-20T18:54:40;19.40;99.90
27759;DHT22;15148;48.972;12.794;2023-07-20T18:59:44;19.40;99.90
27759;DHT22;15148;48.972;12.794;2023-07-20T19:04:46;19.30;99.90
27759;DHT22;15148;48.972;12.794;2023-07-20T19:09:47;19.20;99.90
27759;DHT22;15148;48.972;12.794;2023-07-20T19:14:49;19.10;99.90
27759;DHT22;15148;48.972;12.794;2023-07-20T19:19:52;19.00;99.90
27759;DHT22;15148;48.972;12.794;2023-07-20T19:24:54;18.80;99.90
27759;DHT22;15148;48.972;12.794;2023-07-20T19:29:56;18.70;99.90
27759;DHT22;15148;48.972;12.794;2023-07-20T19:34:58;18.60;99.90
27759;DHT22;15148;48.972;12.794;2023-07-20T19:40:03;18.40;99.90
27759;DHT22;15148;48.972;12.794;2023-07-20T19:45:07;18.40;99.90
27759;DHT22;15148;48.972;12.794;2023-07-20T19:50:09;18.30;99.90
27759;DHT22;15148;48.972;12.794;2023-07-20T19:55:13;18.20;99.90
27759;DHT22;15148;48.972;12.794;2023-07-20T20:00:15;18.10;99.90
27759;DHT22;15148;48.972;12.794;2023-07-20T20:05:19;18.00;99.90
27759;DHT22;15148;48.972;12.794;2023-07-20T20:10:22;17.80;99.90
27759;DHT22;15148;48.972;12.794;2023-07-20T20:15:27;17.70;99.90
27759;DHT22;15148;48.972;12.794;2023-07-20T20:20:32;17.50;99.90
27759;DHT22;15148;48.972;12.794;2023-07-20T20:25:36;17.50;99.90
27759;DHT22;15148;48.972;12.794;2023-07-20T20:30:38;17.30;99.90
27759;DHT22;15148;48.972;12.794;2023-07-20T20:35:40;17.20;99.90
27759;DHT22;15148;48.972;12.794;2023-07-20T20:40:48;17.20;99.90
27759;DHT22;15148;48.972;12.794;2023-07-20T20:45:51;17.30;99.90
27759;DHT22;15148;48.972;12.794;2023-07-20T20:50:52;17.40;99.90
27759;DHT22;15148;48.972;12.794;2023-07-20T20:55:54;17.50;99.90
27759;DHT22;15148;48.972;12.794;2023-07-20T21:01:00;17.50;99.90
27759;DHT22;15148;48.972;12.794;2023-07-20T21:06:05;17.50;99.90
27759;DHT22;15148;48.972;12.794;2023-07-20T21:11:07;17.50;99.90
27759;DHT22;15148;48.972;12.794;2023-07-20T21:16:09;17.40;99.90
27759;DHT22;15148;48.972;12.794;2023-07-20T21:21:11;17.30;99.90
27759;DHT22;15148;48.972;12.794;2023-07-20T21:26:14;17.30;99.90
27759;DHT22;15148;48.972;12.794;2023-07-20T21:31:16;17.20;99.90
27759;DHT22;15148;48.972;12.794;2023-07-20T21:36:18;17.30;99.90
27759;DHT22;15148;48.972;12.794;2023-07-20T21:41:21;17.20;99.90
27759;DHT22;15148;48.972;12.794;2023-07-20T21:46:23;17.20;99.90
27759;DHT22;15148;48.972;12.794;2023-07-20T21:51:25;17.30;99.90
27759;DHT22;15148;48.972;12.794;2023-07-20T21:56:27;17.30;99.90
27759;DHT22;15148;48.972;12.794;2023-07-20T22:01:29;17.30;99.90
27759;DHT22;15148;48.972;12.794;2023-07-20T22:06:33;17.30;99.90
27759;DHT22;15148;48.972;12.794;2023-07-20T22:11:37;17.20;99.90
27759;DHT22;15148;48.972;12.794;2023-07-20T22:16:39;17.10;99.90
27759;DHT22;15148;48.972;12.794;2023-07-20T22:21:42;17.00;99.90
27759;DHT22;15148;48.972;12.794;2023-07-20T22:26:44;16.90;99.90
27759;DHT22;15148;48.972;12.794;2023-07-20T22:31:46;16.90;99.90
27759;DHT22;15148;48.972;12.794;2023-07-20T22:36:48;16.70;99.90
27759;DHT22;15148;48.972;12.794;2023-07-20T22:41:50;16.70;99.90
27759;DHT22;15148;48.972;12.794;2023-07-20T22:46:52;16.50;99.90
27759;DHT22;15148;48.972;12.794;2023-07-20T22:51:54;16.50;99.90
27759;DHT22;15148;48.972;12.794;2023-07-20T22:56:56;16.60;99.90
27759;DHT22;15148;48.972;12.794;2023-07-20T23:02:01;16.60;99.90
27759;DHT22;15148;48.972;12.794;2023-07-20T23:07:03;16.70;99.90
27759;DHT22;15148;48.972;12.794;2023-07-20T23:12:05;16.90;99.90
27759;DHT22;15148;48.972;12.794;2023-07-20T23:17:07;17.00;99.90
27759;DHT22;15148;48.972;12.794;2023-07-20T23:22:13;17.00;99.90
27759;DHT22;15148;48.972;12.794;2023-07-20T23:27:17;17.10;99.90
27759;DHT22;15148;48.972;12.794;2023-07-20T23:32:19;17.20;99.90
27759;DHT22;15148;48.972;12.794;2023-07-20T23:37:21;17.10;99.90
27759;DHT22;15148;48.972;12.794;2023-07-20T23:42:23;17.10;99.90
27759;DHT22;15148;48.972;12.794;2023-07-20T23:47:25;17.10;99.90
27759;DHT22;15148;48.972;12.794;2023-07-20T23:52:27;17.20;99.90
27759;DHT22;15148;48.972;12.794;2023-07-20T23:57:29;17.10;99.90
